Time;durP1;ratioP1;P1;durP2;ratioP2;P2;SDS_P1;SDS_P2;PMS_P1;PMS_P2;Temp;Humidity;BMP_temperature;BMP_pressure;BME280_temperature;BME280_humidity;BME280_pressure;Samples;Min_cycle;Max_cycle;Signal;HPM_P1;HPM_P2
2021/05/28 00:02:22;;;;;;;;;;;;;;;;;;2131555;67;1139;-69
2021/05/28 00:04:47;;;;;;;;;;;;;;;;;;2131307;67;1171;-69
2021/05/28 00:07:12;;;;;;;;;;;;;;;;;;2131549;67;1206;-69
2021/05/28 00:09:39;;;;;;;;;;;;;;;;;;2132047;67;1416;-69
2021/05/28 00:12:05;;;;;;;;;;;;;;;;;;2132860;67;1179;-69
2021/05/28 00:14:31;;;;;;;;;;;;;;;;;;2131969;67;1226;-69
2021/05/28 00:16:56;;;;;;;;;;;;;;;;;;2133263;59;1932;-69
2021/05/28 00:19:21;;;;;;;;;;;;;;;;;;2132276;59;1711;-69
2021/05/28 00:21:46;;;;;;;;;;;;;;;;;;2132483;67;1542;-69
2021/05/28 00:24:11;;;;;;;;;;;;;;;;;;2132851;58;2231;-69
2021/05/28 00:26:37;;;;;;;;;;;;;;;;;;2131377;66;1081;-69
2021/05/28 00:29:03;;;;;;;;;;;;;;;;;;2133051;59;1705;-69
2021/05/28 00:31:28;;;;;;;;;;;;;;;;;;2133475;67;1213;-69
2021/05/28 00:33:53;;;;;;;;;;;;;;;;;;2132847;59;1257;-69
2021/05/28 00:36:18;;;;;;;;;;;;;;;;;;2132267;67;1925;-69
2021/05/28 00:38:44;;;;;;;;;;;;;;;;;;2133339;60;1041;-69
2021/05/28 00:41:10;;;;;;;;;;;;;;;;;;2132169;67;1222;-69
2021/05/28 00:43:35;;;;;;;;;;;;;;;;;;2133234;67;1180;-69
2021/05/28 00:46:00;;;;;;;;;;;;;;;;;;2132527;66;1214;-69
2021/05/28 00:48:26;;;;;;;;;;;;;;;;;;2134247;67;1183;-69
2021/05/28 00:50:51;;;;;;;;;;;;;;;;;;2132196;67;1184;-69
2021/05/28 00:53:16;;;;;;;;;;;;;;;;;;2133034;67;1170;-69
2021/05/28 00:55:41;;;;;;;;;;;;;;;;;;2132410;67;1926;-69
2021/05/28 00:58:07;;;;;;;;;;;;;;;;;;2132640;66;1158;-69
2021/05/28 01:00:32;;;;;;;;;;;;;;;;;;2132702;67;1158;-69
2021/05/28 01:02:57;;;;;;;;;;;;;;;;;;2132007;67;1261;-69
2021/05/28 01:05:23;;;;;;;;;;;;;;;;;;2132570;66;1198;-69
2021/05/28 01:07:48;;;;;;;;;;;;;;;;;;2133836;59;1267;-69
2021/05/28 01:10:14;;;;;;;;;;;;;;;;;;2132279;58;1238;-69
2021/05/28 01:12:39;;;;;;;;;;;;;;;;;;2132630;67;1173;-69
2021/05/28 01:15:06;;;;;;;;;;;;;;;;;;2133724;59;1336;-69
2021/05/28 01:17:31;;;;;;;;;;;;;;;;;;2132769;67;1916;-69
2021/05/28 01:19:56;;;;;;;;;;;;;;;;;;2132144;59;1256;-69
2021/05/28 01:22:22;;;;;;;;;;;;;;;;;;2131460;66;1239;-69
2021/05/28 01:24:47;;;;;;;;;;;;;;;;;;2133035;67;1224;-69
2021/05/28 01:27:13;;;;;;;;;;;;;;;;;;2131849;67;1232;-69
2021/05/28 01:29:38;;;;;;;;;;;;;;;;;;2132220;67;1257;-69
2021/05/28 01:32:03;;;;;;;;;;;;;;;;;;2133433;59;1267;-69
2021/05/28 01:34:29;;;;;;;;;;;;;;;;;;2132814;67;1078;-68
2021/05/28 01:36:54;;;;;;;;;;;;;;;;;;2132144;67;1979;-69
2021/05/28 01:39:19;;;;;;;;;;;;;;;;;;2132308;67;1241;-69
2021/05/28 01:41:45;;;;;;;;;;;;;;;;;;2131816;66;1155;-69
2021/05/28 01:44:11;;;;;;;;;;;;;;;;;;2132352;67;1222;-69
2021/05/28 01:46:36;;;;;;;;;;;;;;;;;;2131883;67;1172;-69
2021/05/28 01:49:03;;;;;;;;;;;;;;;;;;2132833;67;1300;-69
2021/05/28 01:51:28;;;;;;;;;;;;;;;;;;2131920;67;1218;-69
2021/05/28 01:53:53;;;;;;;;;;;;;;;;;;2132174;67;1201;-68
2021/05/28 01:56:19;;;;;;;;;;;;;;;;;;2132417;66;1926;-69
2021/05/28 01:58:44;;;;;;;;;;;;;;;;;;2131943;66;1150;-69
2021/05/28 02:01:09;;;;;;;;;;;;;;;;;;2132270;67;1308;-69
2021/05/28 02:03:34;;;;;;;;;;;;;;;;;;2132333;66;1126;-69
2021/05/28 02:05:59;;;;;;;;;;;;;;;;;;2132056;67;1410;-69
2021/05/28 02:08:25;;;;;;;;;;;;;;;;;;2133106;67;1290;-69
2021/05/28 02:10:50;;;;;;;;;;;;;;;;;;2133483;66;1532;-69
2021/05/28 02:13:15;;;;;;;;;;;;;;;;;;2131151;66;1123;-69
2021/05/28 02:15:40;;;;;;;;;;;;;;;;;;2133682;59;1318;-69
2021/05/28 02:18:06;;;;;;;;;;;;;;;;;;2133028;66;1941;-69
2021/05/28 02:20:31;;;;;;;;;;;;;;;;;;2131534;59;1248;-69
2021/05/28 02:22:56;;;;;;;;;;;;;;;;;;2132367;67;1153;-69
2021/05/28 02:25:21;;;;;;;;;;;;;;;;;;2132453;66;1279;-69
2021/05/28 02:27:47;;;;;;;;;;;;;;;;;;2130688;67;1171;-69
2021/05/28 02:30:13;;;;;;;;;;;;;;;;;;2133478;67;1225;-69
2021/05/28 02:32:39;;;;;;;;;;;;;;;;;;2132264;59;1248;-69
2021/05/28 02:35:04;;;;;;;;;;;;;;;;;;2132483;59;1204;-68
2021/05/28 02:37:30;;;;;;;;;;;;;;;;;;2131733;67;1975;-69
2021/05/28 02:39:57;;;;;;;;;;;;;;;;;;2131365;67;1213;-69
2021/05/28 02:42:22;;;;;;;;;;;;;;;;;;2131968;67;1217;-68
2021/05/28 02:44:47;;;;;;;;;;;;;;;;;;2131354;67;1174;-69
2021/05/28 02:47:12;;;;;;;;;;;;;;;;;;2132419;67;1159;-69
2021/05/28 02:49:38;;;;;;;;;;;;;;;;;;2132566;66;1329;-69
2021/05/28 02:52:04;;;;;;;;;;;;;;;;;;2133557;67;1163;-69
2021/05/28 02:54:29;;;;;;;;;;;;;;;;;;2132172;67;1174;-68
2021/05/28 02:56:54;;;;;;;;;;;;;;;;;;2132570;66;1925;-69
2021/05/28 02:59:19;;;;;;;;;;;;;;;;;;2132789;67;1252;-69
2021/05/28 03:01:45;;;;;;;;;;;;;;;;;;2131715;67;1178;-69
2021/05/28 03:04:10;;;;;;;;;;;;;;;;;;2132986;67;1173;-68
2021/05/28 03:06:35;;;;;;;;;;;;;;;;;;2132638;59;1350;-69
2021/05/28 03:09:01;;;;;;;;;;;;;;;;;;2132499;67;1218;-69
2021/05/28 03:11:26;;;;;;;;;;;;;;;;;;2133529;67;1313;-69
2021/05/28 03:13:51;;;;;;;;;;;;;;;;;;2132539;67;1170;-69
2021/05/28 03:16:16;;;;;;;;;;;;;;;;;;2133273;59;1973;-69
2021/05/28 03:18:57;;;;;;;;;;;;;;;;;;2131783;66;1176;-69
2021/05/28 03:23:48;;;;;;;;;;;;;;;;;;2132449;59;1292;-69
2021/05/28 03:26:14;;;;;;;;;;;;;;;;;;2132200;67;1160;-69
2021/05/28 03:28:39;;;;;;;;;;;;;;;;;;2133599;67;1458;-69
2021/05/28 03:31:04;;;;;;;;;;;;;;;;;;2131913;66;1207;-69
2021/05/28 03:33:29;;;;;;;;;;;;;;;;;;2133677;59;1344;-69
2021/05/28 03:35:55;;;;;;;;;;;;;;;;;;2132924;66;1928;-69
2021/05/28 03:38:20;;;;;;;;;;;;;;;;;;2131867;67;1095;-69
2021/05/28 03:40:45;;;;;;;;;;;;;;;;;;2132172;67;1222;-69
2021/05/28 03:43:10;;;;;;;;;;;;;;;;;;2131826;67;1143;-69
2021/05/28 03:45:35;;;;;;;;;;;;;;;;;;2131923;66;1121;-69
2021/05/28 03:48:00;;;;;;;;;;;;;;;;;;2133449;59;1300;-69
2021/05/28 03:50:26;;;;;;;;;;;;;;;;;;2131440;66;1360;-68
2021/05/28 03:52:51;;;;;;;;;;;;;;;;;;2132480;66;1241;-68
2021/05/28 03:55:16;;;;;;;;;;;;;;;;;;2131465;59;1069;-68
2021/05/28 03:57:41;;;;;;;;;;;;;;;;;;2131944;67;1942;-68
2021/05/28 04:00:07;;;;;;;;;;;;;;;;;;2131956;67;1276;-68
2021/05/28 04:02:32;;;;;;;;;;;;;;;;;;2131511;59;1609;-68
2021/05/28 04:04:57;;;;;;;;;;;;;;;;;;2131846;67;1154;-68
2021/05/28 04:07:25;;;;;;;;;;;;;;;;;;2131496;66;1205;-68
2021/05/28 04:09:50;;;;;;;;;;;;;;;;;;2133239;67;1599;-67
2021/05/28 04:12:15;;;;;;;;;;;;;;;;;;2132226;66;1236;-68
2021/05/28 04:14:40;;;;;;;;;;;;;;;;;;2131634;59;1332;-68
2021/05/28 04:17:05;;;;;;;;;;;;;;;;;;2134113;67;1964;-68
2021/05/28 04:19:31;;;;;;;;;;;;;;;;;;2136765;53;2288;-70
2021/05/28 04:21:56;;;;;;;;;;;;;;;;;;2129728;59;1481;-70
2021/05/28 04:24:21;;;;;;;;;;;;;;;;;;2133117;59;1220;-68
2021/05/28 04:26:46;;;;;;;;;;;;;;;;;;2130366;67;1190;-70
2021/05/28 04:29:11;;;;;;;;;;;;;;;;;;2131106;59;1234;-70
2021/05/28 04:31:36;;;;;;;;;;;;;;;;;;2131244;67;1711;-67
2021/05/28 04:34:02;;;;;;;;;;;;;;;;;;2132319;59;1499;-70
2021/05/28 04:36:27;;;;;;;;;;;;;;;;;;2131377;59;1929;-68
2021/05/28 04:38:52;;;;;;;;;;;;;;;;;;2131214;67;1276;-68
2021/05/28 04:41:18;;;;;;;;;;;;;;;;;;2132208;66;1194;-70
2021/05/28 04:43:43;;;;;;;;;;;;;;;;;;2131005;67;1178;-71
2021/05/28 04:46:08;;;;;;;;;;;;;;;;;;2131479;66;1133;-69
2021/05/28 04:48:33;;;;;;;;;;;;;;;;;;2130001;66;1159;-69
2021/05/28 04:50:58;;;;;;;;;;;;;;;;;;2130615;66;1290;-71
2021/05/28 04:53:23;;;;;;;;;;;;;;;;;;2131343;67;1062;-69
2021/05/28 04:55:49;;;;;;;;;;;;;;;;;;2130474;59;1466;-68
2021/05/28 04:58:14;;;;;;;;;;;;;;;;;;2131726;66;1934;-70
2021/05/28 05:00:39;;;;;;;;;;;;;;;;;;2130236;66;1261;-68
2021/05/28 05:03:04;;;;;;;;;;;;;;;;;;2131936;66;1154;-69
2021/05/28 05:05:30;;;;;;;;;;;;;;;;;;2130732;66;1154;-70
2021/05/28 05:07:55;;;;;;;;;;;;;;;;;;2129188;59;1304;-69
2021/05/28 05:10:20;;;;;;;;;;;;;;;;;;2130271;59;1455;-68
2021/05/28 05:12:46;;;;;;;;;;;;;;;;;;2128697;59;1914;-70
2021/05/28 05:15:11;;;;;;;;;;;;;;;;;;2130832;59;1471;-70
2021/05/28 05:17:37;;;;;;;;;;;;;;;;;;2131660;59;2234;-68
2021/05/28 05:20:03;;;;;;;;;;;;;;;;;;2129577;59;1981;-69
2021/05/28 05:22:28;;;;;;;;;;;;;;;;;;2138789;66;1336;-69
2021/05/28 05:24:53;;;;;;;;;;;;;;;;;;2128750;66;1290;-69
2021/05/28 05:27:18;;;;;;;;;;;;;;;;;;2131079;59;2837;-65
2021/05/28 05:29:43;;;;;;;;;;;;;;;;;;2127624;60;2349;-70
2021/05/28 05:32:09;;;;;;;;;;;;;;;;;;2131666;59;1275;-70
2021/05/28 05:34:34;;;;;;;;;;;;;;;;;;2136931;66;1187;-70
2021/05/28 05:37:02;;;;;;;;;;;;;;;;;;2131561;66;1939;-69
2021/05/28 05:39:31;;;;;;;;;;;;;;;;;;2129118;59;1875;-68
2021/05/28 05:41:56;;;;;;;;;;;;;;;;;;2131062;66;997;-68
2021/05/28 05:44:22;;;;;;;;;;;;;;;;;;2128431;66;1102;-70
2021/05/28 05:46:48;;;;;;;;;;;;;;;;;;2131912;59;1309;-67
2021/05/28 05:49:13;;;;;;;;;;;;;;;;;;2126900;59;1772;-70
2021/05/28 05:51:38;;;;;;;;;;;;;;;;;;2130797;66;1341;-69
2021/05/28 05:54:04;;;;;;;;;;;;;;;;;;2128508;66;1534;-69
2021/05/28 05:56:30;;;;;;;;;;;;;;;;;;2129364;59;1983;-69
2021/05/28 05:58:55;;;;;;;;;;;;;;;;;;2133726;66;1217;-69
2021/05/28 06:01:20;;;;;;;;;;;;;;;;;;2134084;66;1229;-68
2021/05/28 06:03:45;;;;;;;;;;;;;;;;;;2131758;59;2058;-70
2021/05/28 06:06:11;;;;;;;;;;;;;;;;;;2128028;59;1506;-69
2021/05/28 06:08:36;;;;;;;;;;;;;;;;;;2127337;59;1822;-69
2021/05/28 06:11:01;;;;;;;;;;;;;;;;;;2128063;59;1558;-72
2021/05/28 06:13:26;;;;;;;;;;;;;;;;;;2128666;66;1329;-70
2021/05/28 06:15:52;;;;;;;;;;;;;;;;;;2131378;59;1197;-69
2021/05/28 06:18:17;;;;;;;;;;;;;;;;;;2127400;66;1940;-69
2021/05/28 06:20:42;;;;;;;;;;;;;;;;;;2129835;59;1237;-70
2021/05/28 06:23:08;;;;;;;;;;;;;;;;;;2130359;66;1147;-69
2021/05/28 06:25:33;;;;;;;;;;;;;;;;;;2128193;66;1261;-66
2021/05/28 06:27:58;;;;;;;;;;;;;;;;;;2127590;59;2202;-70
2021/05/28 06:30:23;;;;;;;;;;;;;;;;;;2129827;59;2293;-68
2021/05/28 06:32:49;;;;;;;;;;;;;;;;;;2137150;59;1327;-71
2021/05/28 06:35:14;;;;;;;;;;;;;;;;;;2135124;66;1145;-70
2021/05/28 06:37:39;;;;;;;;;;;;;;;;;;2128550;59;1988;-71
2021/05/28 06:40:05;;;;;;;;;;;;;;;;;;2130445;66;1187;-67
2021/05/28 06:42:30;;;;;;;;;;;;;;;;;;2130235;66;1078;-68
2021/05/28 06:44:56;;;;;;;;;;;;;;;;;;2129626;59;1453;-70
2021/05/28 06:47:21;;;;;;;;;;;;;;;;;;2128841;66;1681;-69
2021/05/28 06:49:46;;;;;;;;;;;;;;;;;;2129947;66;1345;-67
2021/05/28 06:52:11;;;;;;;;;;;;;;;;;;2130949;66;1400;-70
2021/05/28 06:54:36;;;;;;;;;;;;;;;;;;2133303;66;1208;-69
2021/05/28 06:57:02;;;;;;;;;;;;;;;;;;2132777;66;1919;-70
2021/05/28 06:59:27;;;;;;;;;;;;;;;;;;2130186;59;1862;-69
2021/05/28 07:01:54;;;;;;;;;;;;;;;;;;2129363;66;1814;-67
2021/05/28 07:04:19;;;;;;;;;;;;;;;;;;2129385;66;1145;-69
2021/05/28 07:06:44;;;;;;;;;;;;;;;;;;2129445;59;1415;-69
2021/05/28 07:09:09;;;;;;;;;;;;;;;;;;2129966;59;1962;-68
2021/05/28 07:11:35;;;;;;;;;;;;;;;;;;2130458;66;1185;-68
2021/05/28 07:14:00;;;;;;;;;;;;;;;;;;2131078;60;1956;-71
2021/05/28 07:16:25;;;;;;;;;;;;;;;;;;2128346;59;1914;-67
2021/05/28 07:18:51;;;;;;;;;;;;;;;;;;2127170;66;2054;-70
2021/05/28 07:21:16;;;;;;;;;;;;;;;;;;2128251;59;1745;-69
2021/05/28 07:23:41;;;;;;;;;;;;;;;;;;2130922;66;1512;-68
2021/05/28 07:26:06;;;;;;;;;;;;;;;;;;2130059;66;1319;-71
2021/05/28 07:28:32;;;;;;;;;;;;;;;;;;2131685;60;2248;-70
2021/05/28 07:30:57;;;;;;;;;;;;;;;;;;2128335;59;2684;-71
2021/05/28 07:33:22;;;;;;;;;;;;;;;;;;2134601;59;1339;-70
2021/05/28 07:35:48;;;;;;;;;;;;;;;;;;2129599;59;1490;-69
2021/05/28 07:38:13;;;;;;;;;;;;;;;;;;2130375;59;1976;-68
2021/05/28 07:40:38;;;;;;;;;;;;;;;;;;2129928;66;1340;-70
2021/05/28 07:43:04;;;;;;;;;;;;;;;;;;2131429;66;1181;-72
2021/05/28 07:45:30;;;;;;;;;;;;;;;;;;2131690;66;1184;-68
2021/05/28 07:47:55;;;;;;;;;;;;;;;;;;2127180;59;1432;-67
2021/05/28 07:50:20;;;;;;;;;;;;;;;;;;2130835;66;1403;-66
2021/05/28 07:52:45;;;;;;;;;;;;;;;;;;2133273;66;1014;-66
2021/05/28 07:55:11;;;;;;;;;;;;;;;;;;2130946;66;1277;-67
2021/05/28 07:57:36;;;;;;;;;;;;;;;;;;2130610;66;1976;-69
2021/05/28 08:00:03;;;;;;;;;;;;;;;;;;2131175;66;1215;-68
2021/05/28 08:02:28;;;;;;;;;;;;;;;;;;2130625;66;1676;-68
2021/05/28 08:04:54;;;;;;;;;;;;;;;;;;2130042;59;1780;-67
2021/05/28 08:07:19;;;;;;;;;;;;;;;;;;2130252;59;1435;-69
2021/05/28 08:09:47;;;;;;;;;;;;;;;;;;2129620;59;1590;-69
2021/05/28 08:12:12;;;;;;;;;;;;;;;;;;2129468;66;1489;-66
2021/05/28 08:14:37;;;;;;;;;;;;;;;;;;2130904;59;2313;-67
2021/05/28 08:17:02;;;;;;;;;;;;;;;;;;2128264;59;2143;-68
2021/05/28 08:19:27;;;;;;;;;;;;;;;;;;2131393;59;1325;-67
2021/05/28 08:21:53;;;;;;;;;;;;;;;;;;2128696;66;1321;-69
2021/05/28 08:24:18;;;;;;;;;;;;;;;;;;2127368;59;1839;-67
2021/05/28 08:26:43;;;;;;;;;;;;;;;;;;2129685;66;1124;-67
2021/05/28 08:29:09;;;;;;;;;;;;;;;;;;2127579;59;2343;-69
2021/05/28 08:31:34;;;;;;;;;;;;;;;;;;2127020;59;2643;-69
2021/05/28 08:33:59;;;;;;;;;;;;;;;;;;2133441;59;1155;-68
2021/05/28 08:36:24;;;;;;;;;;;;;;;;;;2131520;59;2291;-66
2021/05/28 08:38:50;;;;;;;;;;;;;;;;;;2130817;66;972;-69
2021/05/28 08:41:15;;;;;;;;;;;;;;;;;;2128793;66;1931;-67
2021/05/28 08:43:43;;;;;;;;;;;;;;;;;;2128998;66;1209;-67
2021/05/28 08:46:11;;;;;;;;;;;;;;;;;;2133794;66;1215;-66
2021/05/28 08:48:37;;;;;;;;;;;;;;;;;;2127878;66;1225;-67
2021/05/28 08:51:02;;;;;;;;;;;;;;;;;;2131341;59;1310;-69
2021/05/28 08:53:28;;;;;;;;;;;;;;;;;;2131060;66;1590;-68
2021/05/28 08:55:53;;;;;;;;;;;;;;;;;;2133044;59;2039;-65
2021/05/28 08:58:20;;;;;;;;;;;;;;;;;;2127574;59;1931;-68
2021/05/28 09:00:46;;;;;;;;;;;;;;;;;;2130640;66;1451;-67
2021/05/28 09:03:17;;;;;;;;;;;;;;;;;;2129467;66;1193;-67
2021/05/28 09:05:43;;;;;;;;;;;;;;;;;;2129482;66;1849;-65
2021/05/28 09:08:08;;;;;;;;;;;;;;;;;;2129786;59;1359;-69
2021/05/28 09:10:37;;;;;;;;;;;;;;;;;;2131607;59;1603;-68
2021/05/28 09:13:10;;;;;;;;;;;;;;;;;;2128885;59;1751;-68
2021/05/28 09:15:35;;;;;;;;;;;;;;;;;;2129495;59;1210;-66
2021/05/28 09:18:00;;;;;;;;;;;;;;;;;;2126626;59;2250;-68
2021/05/28 09:20:26;;;;;;;;;;;;;;;;;;2131382;59;1679;-69
2021/05/28 09:23:10;;;;;;;;;;;;;;;;;;2130267;66;1350;-68
2021/05/28 09:25:51;;;;;;;;;;;;;;;;;;2129823;59;1877;-67
2021/05/28 09:28:16;;;;;;;;;;;;;;;;;;2127299;59;2358;-69
2021/05/28 09:30:41;;;;;;;;;;;;;;;;;;2128714;59;3202;-67
2021/05/28 09:33:17;;;;;;;;;;;;;;;;;;2128282;59;3279;-65
2021/05/28 09:35:42;;;;;;;;;;;;;;;;;;2128272;59;2405;-68
2021/05/28 09:38:07;;;;;;;;;;;;;;;;;;2129671;66;1984;-69
2021/05/28 09:40:42;;;;;;;;;;;;;;;;;;2129597;66;1249;-68
2021/05/28 09:43:12;;;;;;;;;;;;;;;;;;2131262;66;1145;-64
2021/05/28 09:45:40;;;;;;;;;;;;;;;;;;2129645;66;1108;-69
2021/05/28 09:48:14;;;;;;;;;;;;;;;;;;2126077;59;1321;-66
2021/05/28 09:50:43;;;;;;;;;;;;;;;;;;2128163;59;1687;-66
2021/05/28 09:53:24;;;;;;;;;;;;;;;;;;2129675;59;1259;-67
2021/05/28 09:55:49;;;;;;;;;;;;;;;;;;2127849;66;1168;-69
2021/05/28 09:58:14;;;;;;;;;;;;;;;;;;2131912;66;1997;-68
2021/05/28 10:00:39;;;;;;;;;;;;;;;;;;2130612;66;1220;-69
2021/05/28 10:03:24;;;;;;;;;;;;;;;;;;2129910;62;1121;-70
2021/05/28 10:05:51;;;;;;;;;;;;;;;;;;2128539;66;1151;-67
2021/05/28 10:08:18;;;;;;;;;;;;;;;;;;2129566;59;1221;-69
2021/05/28 10:10:44;;;;;;;;;;;;;;;;;;2133371;59;1440;-66
2021/05/28 10:13:11;;;;;;;;;;;;;;;;;;2133697;66;1094;-68
2021/05/28 10:15:43;;;;;;;;;;;;;;;;;;2131253;59;1752;-69
2021/05/28 10:18:09;;;;;;;;;;;;;;;;;;2129895;66;1976;-69
2021/05/28 10:20:36;;;;;;;;;;;;;;;;;;2138709;53;3704;-64
2021/05/28 10:23:01;;;;;;;;;;;;;;;;;;2140387;59;1697;-67
2021/05/28 10:25:26;;;;;;;;;;;;;;;;;;2141534;59;1255;-67
2021/05/28 10:27:53;;;;;;;;;;;;;;;;;;2141929;66;1195;-67
2021/05/28 10:30:19;;;;;;;;;;;;;;;;;;2141644;59;1549;-67
2021/05/28 10:33:04;;;;;;;;;;;;;;;;;;2139515;59;2900;-67
2021/05/28 10:35:35;;;;;;;;;;;;;;;;;;2141078;67;1225;-67
2021/05/28 10:38:01;;;;;;;;;;;;;;;;;;2140647;59;1975;-67
2021/05/28 10:40:27;;;;;;;;;;;;;;;;;;2143204;66;1300;-67
2021/05/28 10:42:55;;;;;;;;;;;;;;;;;;2142275;67;1364;-67
2021/05/28 10:45:39;;;;;;;;;;;;;;;;;;2141063;67;1208;-67
2021/05/28 10:48:04;;;;;;;;;;;;;;;;;;2139280;67;1220;-67
2021/05/28 10:50:45;;;;;;;;;;;;;;;;;;2141542;59;1482;-67
2021/05/28 10:53:10;;;;;;;;;;;;;;;;;;2141560;67;1148;-67
2021/05/28 10:55:55;;;;;;;;;;;;;;;;;;2138577;67;1225;-67
2021/05/28 10:58:39;;;;;;;;;;;;;;;;;;2139774;67;1983;-67
2021/05/28 11:01:24;;;;;;;;;;;;;;;;;;2140745;66;1162;-67
2021/05/28 11:03:49;;;;;;;;;;;;;;;;;;2138663;59;1363;-67
2021/05/28 11:06:15;;;;;;;;;;;;;;;;;;2142084;67;1172;-67
2021/05/28 11:08:42;;;;;;;;;;;;;;;;;;2142211;59;1278;-67
2021/05/28 11:11:08;;;;;;;;;;;;;;;;;;2140968;66;1191;-67
2021/05/28 11:13:53;;;;;;;;;;;;;;;;;;2143065;66;1183;-67
2021/05/28 11:16:18;;;;;;;;;;;;;;;;;;2140601;66;1979;-67
2021/05/28 11:18:44;;;;;;;;;;;;;;;;;;2140190;59;1258;-67
2021/05/28 11:21:13;;;;;;;;;;;;;;;;;;2142283;59;1436;-67
2021/05/28 11:23:40;;;;;;;;;;;;;;;;;;2140840;66;1297;-67
2021/05/28 11:26:13;;;;;;;;;;;;;;;;;;2140105;66;1156;-69
2021/05/28 11:28:49;;;;;;;;;;;;;;;;;;2143548;66;1335;-68
2021/05/28 11:31:18;;;;;;;;;;;;;;;;;;2140963;66;1456;-67
2021/05/28 11:33:43;;;;;;;;;;;;;;;;;;2140672;59;2688;-67
2021/05/28 11:36:19;;;;;;;;;;;;;;;;;;2141306;66;1809;-67
2021/05/28 11:38:53;;;;;;;;;;;;;;;;;;2141671;66;1410;-67
2021/05/28 11:41:19;;;;;;;;;;;;;;;;;;2142753;66;1354;-67
2021/05/28 11:43:44;;;;;;;;;;;;;;;;;;2143245;66;1330;-67
2021/05/28 11:46:09;;;;;;;;;;;;;;;;;;2141879;66;1196;-67
2021/05/28 11:48:35;;;;;;;;;;;;;;;;;;2139720;59;1335;-67
2021/05/28 11:51:01;;;;;;;;;;;;;;;;;;2138962;67;1414;-67
2021/05/28 11:53:33;;;;;;;;;;;;;;;;;;2142028;66;1365;-67
2021/05/28 11:55:59;;;;;;;;;;;;;;;;;;2141199;59;1214;-67
2021/05/28 11:58:28;;;;;;;;;;;;;;;;;;2141020;59;1937;-67
2021/05/28 12:00:53;;;;;;;;;;;;;;;;;;2142639;59;1460;-67
2021/05/28 12:03:19;;;;;;;;;;;;;;;;;;2142266;66;1338;-67
2021/05/28 12:05:46;;;;;;;;;;;;;;;;;;2142389;66;1232;-67
2021/05/28 12:08:11;;;;;;;;;;;;;;;;;;2140974;67;1306;-67
2021/05/28 12:10:41;;;;;;;;;;;;;;;;;;2141132;66;1318;-67
2021/05/28 12:13:11;;;;;;;;;;;;;;;;;;2141618;67;1540;-67
2021/05/28 12:15:38;;;;;;;;;;;;;;;;;;2137938;59;1393;-67
2021/05/28 12:18:12;;;;;;;;;;;;;;;;;;2137181;66;1984;-67
2021/05/28 12:20:38;;;;;;;;;;;;;;;;;;2142182;66;1561;-67
2021/05/28 12:23:04;;;;;;;;;;;;;;;;;;2140078;67;1366;-67
2021/05/28 12:25:30;;;;;;;;;;;;;;;;;;2138573;66;1627;-67
2021/05/28 12:28:06;;;;;;;;;;;;;;;;;;2142630;66;1450;-67
2021/05/28 12:30:31;;;;;;;;;;;;;;;;;;2142416;59;1576;-67
2021/05/28 12:32:56;;;;;;;;;;;;;;;;;;2140791;66;2305;-70
2021/05/28 12:35:21;;;;;;;;;;;;;;;;;;2140009;59;2648;-68
2021/05/28 12:38:03;;;;;;;;;;;;;;;;;;2140539;67;1923;-67
2021/05/28 12:40:28;;;;;;;;;;;;;;;;;;2138599;66;1723;-69
2021/05/28 12:42:54;;;;;;;;;;;;;;;;;;2141222;66;1166;-69
2021/05/28 12:45:20;;;;;;;;;;;;;;;;;;2143029;66;1019;-67
2021/05/28 12:47:45;;;;;;;;;;;;;;;;;;2137944;66;1185;-69
2021/05/28 12:50:33;;;;;;;;;;;;;;;;;;2140448;67;1419;-69
2021/05/28 12:52:58;;;;;;;;;;;;;;;;;;2142609;66;1159;-67
2021/05/28 12:55:31;;;;;;;;;;;;;;;;;;2143189;66;1049;-69
2021/05/28 12:57:57;;;;;;;;;;;;;;;;;;2142183;66;1914;-69
2021/05/28 13:00:32;;;;;;;;;;;;;;;;;;2141296;59;1250;-69
2021/05/28 13:02:57;;;;;;;;;;;;;;;;;;2144010;66;1304;-69
2021/05/28 13:05:33;;;;;;;;;;;;;;;;;;2143696;66;1125;-67
2021/05/28 13:07:58;;;;;;;;;;;;;;;;;;2143215;59;1363;-67
2021/05/28 13:10:25;;;;;;;;;;;;;;;;;;2143420;66;1526;-67
2021/05/28 13:12:54;;;;;;;;;;;;;;;;;;2142479;66;1288;-69
2021/05/28 13:15:25;;;;;;;;;;;;;;;;;;2139389;59;1920;-69
2021/05/28 13:17:54;;;;;;;;;;;;;;;;;;2138628;66;1896;-69
2021/05/28 13:20:20;;;;;;;;;;;;;;;;;;2142255;59;1395;-69
2021/05/28 13:22:46;;;;;;;;;;;;;;;;;;2141490;59;1164;-69
2021/05/28 13:25:11;;;;;;;;;;;;;;;;;;2141178;66;1070;-69
2021/05/28 13:27:37;;;;;;;;;;;;;;;;;;2141003;66;1247;-70
2021/05/28 13:30:02;;;;;;;;;;;;;;;;;;2141936;62;1254;-69
2021/05/28 13:32:28;;;;;;;;;;;;;;;;;;2142140;59;1264;-70
2021/05/28 13:34:55;;;;;;;;;;;;;;;;;;2140384;59;2639;-70
2021/05/28 13:37:22;;;;;;;;;;;;;;;;;;2141126;66;2869;-69
2021/05/28 13:39:47;;;;;;;;;;;;;;;;;;2141439;66;1982;-70
2021/05/28 13:42:12;;;;;;;;;;;;;;;;;;2142538;66;1636;-69
2021/05/28 13:44:37;;;;;;;;;;;;;;;;;;2141335;66;1210;-69
2021/05/28 13:47:04;;;;;;;;;;;;;;;;;;2141272;66;1754;-70
2021/05/28 13:49:29;;;;;;;;;;;;;;;;;;2142541;66;1180;-70
2021/05/28 13:51:54;;;;;;;;;;;;;;;;;;2141937;66;1370;-69
2021/05/28 13:54:19;;;;;;;;;;;;;;;;;;2142943;66;1211;-69
2021/05/28 13:56:44;;;;;;;;;;;;;;;;;;2140878;66;1888;-70
2021/05/28 13:59:10;;;;;;;;;;;;;;;;;;2141749;66;1166;-69
2021/05/28 14:01:35;;;;;;;;;;;;;;;;;;2141075;59;1446;-70
2021/05/28 14:04:00;;;;;;;;;;;;;;;;;;2137973;67;1543;-69
2021/05/28 14:06:25;;;;;;;;;;;;;;;;;;2143074;66;1341;-70
2021/05/28 14:08:50;;;;;;;;;;;;;;;;;;2142344;66;1461;-70
2021/05/28 14:11:20;;;;;;;;;;;;;;;;;;2142100;66;1245;-69
2021/05/28 14:13:45;;;;;;;;;;;;;;;;;;2138527;67;1104;-67
2021/05/28 14:16:12;;;;;;;;;;;;;;;;;;2142487;59;1258;-69
2021/05/28 14:18:37;;;;;;;;;;;;;;;;;;2141217;66;1990;-70
2021/05/28 14:21:03;;;;;;;;;;;;;;;;;;2141967;66;1369;-70
2021/05/28 14:23:28;;;;;;;;;;;;;;;;;;2141526;59;1366;-70
2021/05/28 14:25:53;;;;;;;;;;;;;;;;;;2142125;66;1166;-70
2021/05/28 14:28:18;;;;;;;;;;;;;;;;;;2140586;59;1299;-69
2021/05/28 14:30:43;;;;;;;;;;;;;;;;;;2141053;67;1200;-70
2021/05/28 14:33:09;;;;;;;;;;;;;;;;;;2142261;59;1252;-70
2021/05/28 14:35:34;;;;;;;;;;;;;;;;;;2140005;59;2217;-69
2021/05/28 14:37:59;;;;;;;;;;;;;;;;;;2138897;59;2451;-71
2021/05/28 14:40:25;;;;;;;;;;;;;;;;;;2140446;67;1956;-70
2021/05/28 14:42:51;;;;;;;;;;;;;;;;;;2142562;67;1384;-69
2021/05/28 14:45:17;;;;;;;;;;;;;;;;;;2141306;67;1277;-70
2021/05/28 14:47:42;;;;;;;;;;;;;;;;;;2139659;66;1304;-70
2021/05/28 14:50:08;;;;;;;;;;;;;;;;;;2139987;67;1317;-69
2021/05/28 14:52:33;;;;;;;;;;;;;;;;;;2141448;67;1144;-70
2021/05/28 14:54:58;;;;;;;;;;;;;;;;;;2141074;59;1763;-68
2021/05/28 14:57:24;;;;;;;;;;;;;;;;;;2141257;66;1925;-70
2021/05/28 14:59:52;;;;;;;;;;;;;;;;;;2139893;59;2176;-70
2021/05/28 15:02:17;;;;;;;;;;;;;;;;;;2140613;66;1437;-70
2021/05/28 15:04:42;;;;;;;;;;;;;;;;;;2139112;59;1932;-69
2021/05/28 15:07:07;;;;;;;;;;;;;;;;;;2140441;59;1826;-69
2021/05/28 15:09:32;;;;;;;;;;;;;;;;;;2138979;59;1965;-70
2021/05/28 15:11:57;;;;;;;;;;;;;;;;;;2141207;59;1992;-70
2021/05/28 15:14:23;;;;;;;;;;;;;;;;;;2141494;66;1503;-70
2021/05/28 15:16:50;;;;;;;;;;;;;;;;;;2140591;59;1937;-70
2021/05/28 15:19:15;;;;;;;;;;;;;;;;;;2141334;66;1162;-68
2021/05/28 15:21:40;;;;;;;;;;;;;;;;;;2141168;59;1622;-68
2021/05/28 15:24:06;;;;;;;;;;;;;;;;;;2139800;66;1731;-70
2021/05/28 15:26:31;;;;;;;;;;;;;;;;;;2141555;66;1199;-67
2021/05/28 15:28:57;;;;;;;;;;;;;;;;;;2142440;66;1328;-70
2021/05/28 15:31:22;;;;;;;;;;;;;;;;;;2141966;66;1327;-67
2021/05/28 15:33:47;;;;;;;;;;;;;;;;;;2141515;59;1680;-68
2021/05/28 15:36:13;;;;;;;;;;;;;;;;;;2137797;59;2547;-70
2021/05/28 15:38:38;;;;;;;;;;;;;;;;;;2136048;59;2197;-68
2021/05/28 15:41:04;;;;;;;;;;;;;;;;;;2142000;66;1357;-67
2021/05/28 15:43:30;;;;;;;;;;;;;;;;;;2140787;59;1856;-67
2021/05/28 15:45:55;;;;;;;;;;;;;;;;;;2140944;66;1187;-67
2021/05/28 15:48:20;;;;;;;;;;;;;;;;;;2137820;59;1825;-67
2021/05/28 15:50:45;;;;;;;;;;;;;;;;;;2140581;59;1650;-67
2021/05/28 15:53:12;;;;;;;;;;;;;;;;;;2140526;66;1177;-68
2021/05/28 15:55:38;;;;;;;;;;;;;;;;;;2141160;59;1834;-67
2021/05/28 15:58:03;;;;;;;;;;;;;;;;;;2141297;66;1928;-68
2021/05/28 16:00:28;;;;;;;;;;;;;;;;;;2140503;58;1302;-67
2021/05/28 16:02:54;;;;;;;;;;;;;;;;;;2140270;59;1376;-67
2021/05/28 16:05:19;;;;;;;;;;;;;;;;;;2142027;66;1153;-68
2021/05/28 16:07:45;;;;;;;;;;;;;;;;;;2140622;59;1940;-67
2021/05/28 16:10:11;;;;;;;;;;;;;;;;;;2139986;58;1968;-71
2021/05/28 16:12:37;;;;;;;;;;;;;;;;;;2141371;66;1399;-70
2021/05/28 16:15:04;;;;;;;;;;;;;;;;;;2140573;59;1227;-70
2021/05/28 16:17:29;;;;;;;;;;;;;;;;;;2138254;59;1930;-70
2021/05/28 16:19:55;;;;;;;;;;;;;;;;;;2140798;66;1693;-70
2021/05/28 16:22:20;;;;;;;;;;;;;;;;;;2142341;58;2399;-70
2021/05/28 16:24:46;;;;;;;;;;;;;;;;;;2139998;59;1941;-70
2021/05/28 16:27:11;;;;;;;;;;;;;;;;;;2141111;59;1284;-70
2021/05/28 16:29:36;;;;;;;;;;;;;;;;;;2138573;59;1356;-70
2021/05/28 16:32:01;;;;;;;;;;;;;;;;;;2140240;59;1827;-70
2021/05/28 16:34:27;;;;;;;;;;;;;;;;;;2136608;67;1480;-69
2021/05/28 16:36:52;;;;;;;;;;;;;;;;;;2140707;66;2472;-70
2021/05/28 16:39:17;;;;;;;;;;;;;;;;;;2137015;59;2593;-70
2021/05/28 16:41:42;;;;;;;;;;;;;;;;;;2140309;66;2069;-70
2021/05/28 16:44:09;;;;;;;;;;;;;;;;;;2140801;59;1261;-70
2021/05/28 16:46:35;;;;;;;;;;;;;;;;;;2138955;59;2500;-70
2021/05/28 16:49:00;;;;;;;;;;;;;;;;;;2138652;66;1633;-70
2021/05/28 16:51:26;;;;;;;;;;;;;;;;;;2140881;66;1409;-70
2021/05/28 16:53:51;;;;;;;;;;;;;;;;;;2138631;59;1709;-70
2021/05/28 16:56:17;;;;;;;;;;;;;;;;;;2140187;59;1302;-70
2021/05/28 16:58:42;;;;;;;;;;;;;;;;;;2142105;59;1974;-70
2021/05/28 17:01:07;;;;;;;;;;;;;;;;;;2139260;66;2073;-70